sensor_id;sensor_type;location;lat;lon;timestamp;temperature;humidity
16970;DHT22;8601;48.718;8.992;2022-09-17T00:01:43;10.40;99.90
16970;DHT22;8601;48.718;8.992;2022-09-17T00:04:10;10.30;99.90
16970;DHT22;8601;48.718;8.992;2022-09-17T00:06:38;10.30;99.90
16970;DHT22;8601;48.718;8.992;2022-09-17T00:09:06;10.30;99.90
16970;DHT22;8601;48.718;8.992;2022-09-17T00:11:37;10.20;99.90
16970;DHT22;8601;48.718;8.992;2022-09-17T00:14:06;10.20;99.90
16970;DHT22;8601;48.718;8.992;2022-09-17T00:16:36;10.10;99.90
16970;DHT22;8601;48.718;8.992;2022-09-17T00:19:05;10.10;99.90
16970;DHT22;8601;48.718;8.992;2022-09-17T00:21:33;10.10;99.90
16970;DHT22;8601;48.718;8.992;2022-09-17T00:24:03;10.10;99.90
16970;DHT22;8601;48.718;8.992;2022-09-17T00:26:32;10.10;99.90
16970;DHT22;8601;48.718;8.992;2022-09-17T00:29:00;10.10;99.90
16970;DHT22;8601;48.718;8.992;2022-09-17T00:31:28;10.20;99.90
16970;DHT22;8601;48.718;8.992;2022-09-17T00:33:57;10.20;99.90
16970;DHT22;8601;48.718;8.992;2022-09-17T00:36:24;10.30;99.90
16970;DHT22;8601;48.718;8.992;2022-09-17T00:38:53;10.30;99.90
16970;DHT22;8601;48.718;8.992;2022-09-17T00:41:23;10.20;99.90
16970;DHT22;8601;48.718;8.992;2022-09-17T00:43:52;10.20;99.90
16970;DHT22;8601;48.718;8.992;2022-09-17T00:46:24;10.20;99.90
16970;DHT22;8601;48.718;8.992;2022-09-17T00:48:57;10.20;99.90
16970;DHT22;8601;48.718;8.992;2022-09-17T00:51:29;10.30;99.90
16970;DHT22;8601;48.718;8.992;2022-09-17T00:53:59;10.30;99.90
16970;DHT22;8601;48.718;8.992;2022-09-17T00:56:33;10.40;99.90
16970;DHT22;8601;48.718;8.992;2022-09-17T00:59:01;10.30;99.90
16970;DHT22;8601;48.718;8.992;2022-09-17T01:01:28;10.30;99.90
16970;DHT22;8601;48.718;8.992;2022-09-17T01:03:56;10.30;99.90
16970;DHT22;8601;48.718;8.992;2022-09-17T01:06:31;10.40;99.90
16970;DHT22;8601;48.718;8.992;2022-09-17T01:09:14;10.40;99.90
16970;DHT22;8601;48.718;8.992;2022-09-17T01:11:59;10.50;99.90
16970;DHT22;8601;48.718;8.992;2022-09-17T01:14:46;10.60;99.90
16970;DHT22;8601;48.718;8.992;2022-09-17T01:17:29;10.40;99.90
16970;DHT22;8601;48.718;8.992;2022-09-17T01:23:49;10.20;99.90
16970;DHT22;8601;48.718;8.992;2022-09-17T01:26:38;10.20;99.90
16970;DHT22;8601;48.718;8.992;2022-09-17T01:29:23;10.10;99.90
16970;DHT22;8601;48.718;8.992;2022-09-17T01:32:08;10.00;99.90
16970;DHT22;8601;48.718;8.992;2022-09-17T01:34:42;10.00;99.90
16970;DHT22;8601;48.718;8.992;2022-09-17T01:37:13;10.00;99.90
16970;DHT22;8601;48.718;8.992;2022-09-17T01:39:45;10.00;99.90
16970;DHT22;8601;48.718;8.992;2022-09-17T01:42:17;10.00;99.90
16970;DHT22;8601;48.718;8.992;2022-09-17T01:44:54;10.00;99.90
16970;DHT22;8601;48.718;8.992;2022-09-17T01:47:28;10.00;99.90
16970;DHT22;8601;48.718;8.992;2022-09-17T01:50:01;10.10;99.90
16970;DHT22;8601;48.718;8.992;2022-09-17T01:52:31;10.10;99.90
16970;DHT22;8601;48.718;8.992;2022-09-17T01:55:02;10.00;99.90
16970;DHT22;8601;48.718;8.992;2022-09-17T01:57:35;10.00;99.90
16970;DHT22;8601;48.718;8.992;2022-09-17T02:00:05;10.00;99.90
16970;DHT22;8601;48.718;8.992;2022-09-17T02:02:38;10.10;99.90
16970;DHT22;8601;48.718;8.992;2022-09-17T02:05:09;10.10;99.90
16970;DHT22;8601;48.718;8.992;2022-09-17T02:07:46;10.10;99.90
16970;DHT22;8601;48.718;8.992;2022-09-17T02:10:18;10.10;99.90
16970;DHT22;8601;48.718;8.992;2022-09-17T02:12:52;10.10;99.90
16970;DHT22;8601;48.718;8.992;2022-09-17T02:15:24;10.20;99.90
16970;DHT22;8601;48.718;8.992;2022-09-17T02:17:57;10.20;99.90
16970;DHT22;8601;48.718;8.992;2022-09-17T02:20:37;10.20;99.90
16970;DHT22;8601;48.718;8.992;2022-09-17T02:23:08;10.20;99.90
16970;DHT22;8601;48.718;8.992;2022-09-17T02:25:42;10.20;99.90
16970;DHT22;8601;48.718;8.992;2022-09-17T02:28:14;10.10;99.90
16970;DHT22;8601;48.718;8.992;2022-09-17T02:30:43;10.10;99.90
16970;DHT22;8601;48.718;8.992;2022-09-17T02:33:12;10.10;99.90
16970;DHT22;8601;48.718;8.992;2022-09-17T02:35:40;10.00;99.90
16970;DHT22;8601;48.718;8.992;2022-09-17T02:38:08;10.00;99.90
16970;DHT22;8601;48.718;8.992;2022-09-17T02:40:43;10.10;99.90
16970;DHT22;8601;48.718;8.992;2022-09-17T02:43:18;10.10;99.90
16970;DHT22;8601;48.718;8.992;2022-09-17T02:45:53;10.10;99.90
16970;DHT22;8601;48.718;8.992;2022-09-17T02:48:43;10.20;99.90
16970;DHT22;8601;48.718;8.992;2022-09-17T02:51:22;10.20;99.90
16970;DHT22;8601;48.718;8.992;2022-09-17T02:54:15;10.20;99.90
16970;DHT22;8601;48.718;8.992;2022-09-17T02:56:50;10.10;99.90
16970;DHT22;8601;48.718;8.992;2022-09-17T02:59:23;10.00;99.90
16970;DHT22;8601;48.718;8.992;2022-09-17T03:01:57;9.90;99.90
16970;DHT22;8601;48.718;8.992;2022-09-17T03:04:32;10.50;99.90
16970;DHT22;8601;48.718;8.992;2022-09-17T03:07:04;10.30;99.90
16970;DHT22;8601;48.718;8.992;2022-09-17T03:09:33;10.10;99.90
16970;DHT22;8601;48.718;8.992;2022-09-17T03:12:01;10.00;99.90
16970;DHT22;8601;48.718;8.992;2022-09-17T03:14:28;10.00;99.90
16970;DHT22;8601;48.718;8.992;2022-09-17T03:16:55;9.80;99.90
16970;DHT22;8601;48.718;8.992;2022-09-17T03:19:34;9.80;99.90
16970;DHT22;8601;48.718;8.992;2022-09-17T03:22:01;9.80;99.90
16970;DHT22;8601;48.718;8.992;2022-09-17T03:24:28;9.80;99.90
16970;DHT22;8601;48.718;8.992;2022-09-17T03:26:55;9.80;99.90
16970;DHT22;8601;48.718;8.992;2022-09-17T03:29:22;9.80;99.90
16970;DHT22;8601;48.718;8.992;2022-09-17T03:31:49;9.80;99.90
16970;DHT22;8601;48.718;8.992;2022-09-17T03:34:16;9.80;99.90
16970;DHT22;8601;48.718;8.992;2022-09-17T03:36:44;9.80;99.90
16970;DHT22;8601;48.718;8.992;2022-09-17T03:39:11;9.90;99.90
16970;DHT22;8601;48.718;8.992;2022-09-17T03:41:38;9.90;99.90
16970;DHT22;8601;48.718;8.992;2022-09-17T03:44:05;9.90;99.90
16970;DHT22;8601;48.718;8.992;2022-09-17T03:46:32;9.90;99.90
16970;DHT22;8601;48.718;8.992;2022-09-17T03:48:59;9.80;99.90
16970;DHT22;8601;48.718;8.992;2022-09-17T03:51:26;9.80;99.90
16970;DHT22;8601;48.718;8.992;2022-09-17T03:53:54;9.90;99.90
16970;DHT22;8601;48.718;8.992;2022-09-17T03:56:21;9.80;99.90
16970;DHT22;8601;48.718;8.992;2022-09-17T03:58:48;9.80;99.90
16970;DHT22;8601;48.718;8.992;2022-09-17T04:01:15;9.80;99.90
16970;DHT22;8601;48.718;8.992;2022-09-17T04:03:42;9.80;99.90
16970;DHT22;8601;48.718;8.992;2022-09-17T04:06:10;9.80;99.90
16970;DHT22;8601;48.718;8.992;2022-09-17T04:08:37;9.60;99.90
16970;DHT22;8601;48.718;8.992;2022-09-17T04:11:05;9.60;99.90
16970;DHT22;8601;48.718;8.992;2022-09-17T04:13:33;9.70;99.90
16970;DHT22;8601;48.718;8.992;2022-09-17T04:16:00;9.70;99.90
16970;DHT22;8601;48.718;8.992;2022-09-17T04:18:27;9.60;99.90
16970;DHT22;8601;48.718;8.992;2022-09-17T04:20:53;9.50;99.90
16970;DHT22;8601;48.718;8.992;2022-09-17T04:23:21;9.50;99.90
16970;DHT22;8601;48.718;8.992;2022-09-17T04:25:48;9.40;99.90
16970;DHT22;8601;48.718;8.992;2022-09-17T04:28:16;9.20;99.90
16970;DHT22;8601;48.718;8.992;2022-09-17T04:30:43;9.30;99.90
16970;DHT22;8601;48.718;8.992;2022-09-17T04:33:10;9.20;99.90
16970;DHT22;8601;48.718;8.992;2022-09-17T04:35:37;9.20;99.90
16970;DHT22;8601;48.718;8.992;2022-09-17T04:38:04;9.20;99.90
16970;DHT22;8601;48.718;8.992;2022-09-17T04:40:39;9.20;99.90
16970;DHT22;8601;48.718;8.992;2022-09-17T04:43:07;9.10;99.90
16970;DHT22;8601;48.718;8.992;2022-09-17T04:45:36;9.20;99.90
16970;DHT22;8601;48.718;8.992;2022-09-17T04:48:03;9.30;99.90
16970;DHT22;8601;48.718;8.992;2022-09-17T04:50:30;9.30;99.90
16970;DHT22;8601;48.718;8.992;2022-09-17T04:52:57;9.40;99.90
16970;DHT22;8601;48.718;8.992;2022-09-17T04:55:25;9.30;99.90
16970;DHT22;8601;48.718;8.992;2022-09-17T04:57:52;9.30;99.90
16970;DHT22;8601;48.718;8.992;2022-09-17T05:00:21;9.30;99.90
16970;DHT22;8601;48.718;8.992;2022-09-17T05:02:52;9.30;99.90
16970;DHT22;8601;48.718;8.992;2022-09-17T05:05:19;9.30;99.90
16970;DHT22;8601;48.718;8.992;2022-09-17T05:07:46;9.30;99.90
16970;DHT22;8601;48.718;8.992;2022-09-17T05:10:15;9.40;99.90
16970;DHT22;8601;48.718;8.992;2022-09-17T05:12:47;9.40;99.90
16970;DHT22;8601;48.718;8.992;2022-09-17T05:15:14;9.40;99.90
16970;DHT22;8601;48.718;8.992;2022-09-17T05:17:41;9.40;99.90
16970;DHT22;8601;48.718;8.992;2022-09-17T05:20:18;9.40;99.90
16970;DHT22;8601;48.718;8.992;2022-09-17T05:22:47;9.40;99.90
16970;DHT22;8601;48.718;8.992;2022-09-17T05:25:16;9.40;99.90
16970;DHT22;8601;48.718;8.992;2022-09-17T05:27:43;9.40;99.90
16970;DHT22;8601;48.718;8.992;2022-09-17T05:30:11;9.30;99.90
16970;DHT22;8601;48.718;8.992;2022-09-17T05:32:38;9.30;99.90
16970;DHT22;8601;48.718;8.992;2022-09-17T05:35:06;9.20;99.90
16970;DHT22;8601;48.718;8.992;2022-09-17T05:37:44;9.20;99.90
16970;DHT22;8601;48.718;8.992;2022-09-17T05:40:10;9.20;99.90
16970;DHT22;8601;48.718;8.992;2022-09-17T05:42:37;9.10;99.90
16970;DHT22;8601;48.718;8.992;2022-09-17T05:45:05;9.10;99.90
16970;DHT22;8601;48.718;8.992;2022-09-17T05:47:32;9.10;99.90
16970;DHT22;8601;48.718;8.992;2022-09-17T05:50:00;9.20;99.90
16970;DHT22;8601;48.718;8.992;2022-09-17T05:52:27;9.10;99.90
16970;DHT22;8601;48.718;8.992;2022-09-17T05:54:56;9.10;99.90
16970;DHT22;8601;48.718;8.992;2022-09-17T05:57:22;9.10;99.90
16970;DHT22;8601;48.718;8.992;2022-09-17T05:59:49;9.10;99.90
16970;DHT22;8601;48.718;8.992;2022-09-17T06:02:24;9.20;99.90
16970;DHT22;8601;48.718;8.992;2022-09-17T06:04:51;9.20;99.90
16970;DHT22;8601;48.718;8.992;2022-09-17T06:07:18;9.20;99.90
16970;DHT22;8601;48.718;8.992;2022-09-17T06:09:45;9.30;99.90
16970;DHT22;8601;48.718;8.992;2022-09-17T06:12:13;9.40;99.90
16970;DHT22;8601;48.718;8.992;2022-09-17T06:14:40;9.30;99.90
16970;DHT22;8601;48.718;8.992;2022-09-17T06:17:07;9.30;99.90
16970;DHT22;8601;48.718;8.992;2022-09-17T06:19:34;9.40;99.90
16970;DHT22;8601;48.718;8.992;2022-09-17T06:22:01;9.50;99.90
16970;DHT22;8601;48.718;8.992;2022-09-17T06:24:29;9.50;99.90
16970;DHT22;8601;48.718;8.992;2022-09-17T06:26:57;9.50;99.90
16970;DHT22;8601;48.718;8.992;2022-09-17T06:29:25;9.40;99.90
16970;DHT22;8601;48.718;8.992;2022-09-17T06:31:52;9.40;99.90
16970;DHT22;8601;48.718;8.992;2022-09-17T06:34:19;9.40;99.90
16970;DHT22;8601;48.718;8.992;2022-09-17T06:36:47;9.50;99.90
16970;DHT22;8601;48.718;8.992;2022-09-17T06:39:30;9.40;99.90
16970;DHT22;8601;48.718;8.992;2022-09-17T06:41:57;9.40;99.90
16970;DHT22;8601;48.718;8.992;2022-09-17T06:44:25;9.40;99.90
16970;DHT22;8601;48.718;8.992;2022-09-17T06:46:52;9.40;99.90
16970;DHT22;8601;48.718;8.992;2022-09-17T06:49:19;9.40;99.90
16970;DHT22;8601;48.718;8.992;2022-09-17T06:51:46;9.50;99.90
16970;DHT22;8601;48.718;8.992;2022-09-17T06:54:13;9.50;99.90
16970;DHT22;8601;48.718;8.992;2022-09-17T06:56:40;9.50;99.90
16970;DHT22;8601;48.718;8.992;2022-09-17T06:59:07;9.40;99.90
16970;DHT22;8601;48.718;8.992;2022-09-17T07:01:35;9.30;99.90
16970;DHT22;8601;48.718;8.992;2022-09-17T07:04:02;9.20;99.90
16970;DHT22;8601;48.718;8.992;2022-09-17T07:06:29;9.20;99.90
16970;DHT22;8601;48.718;8.992;2022-09-17T07:08:57;9.20;99.90
16970;DHT22;8601;48.718;8.992;2022-09-17T07:11:30;9.20;99.90
16970;DHT22;8601;48.718;8.992;2022-09-17T07:13:57;9.20;99.90
16970;DHT22;8601;48.718;8.992;2022-09-17T07:16:24;9.20;99.90
16970;DHT22;8601;48.718;8.992;2022-09-17T07:18:52;9.10;99.90
16970;DHT22;8601;48.718;8.992;2022-09-17T07:21:19;9.10;99.90
16970;DHT22;8601;48.718;8.992;2022-09-17T07:23:46;9.10;99.90
16970;DHT22;8601;48.718;8.992;2022-09-17T07:26:14;9.10;99.90
16970;DHT22;8601;48.718;8.992;2022-09-17T07:28:41;9.10;99.90
16970;DHT22;8601;48.718;8.992;2022-09-17T07:31:10;9.20;99.90
16970;DHT22;8601;48.718;8.992;2022-09-17T07:33:38;9.20;99.90
16970;DHT22;8601;48.718;8.992;2022-09-17T07:36:08;9.30;99.90
16970;DHT22;8601;48.718;8.992;2022-09-17T07:38:36;9.20;99.90
16970;DHT22;8601;48.718;8.992;2022-09-17T07:41:06;9.10;99.90
16970;DHT22;8601;48.718;8.992;2022-09-17T07:43:34;9.10;99.90
16970;DHT22;8601;48.718;8.992;2022-09-17T07:46:02;9.20;99.90
16970;DHT22;8601;48.718;8.992;2022-09-17T07:48:29;9.10;99.90
16970;DHT22;8601;48.718;8.992;2022-09-17T07:50:56;9.00;99.90
16970;DHT22;8601;48.718;8.992;2022-09-17T07:53:25;9.00;99.90
16970;DHT22;8601;48.718;8.992;2022-09-17T07:55:52;9.00;99.90
16970;DHT22;8601;48.718;8.992;2022-09-17T07:58:20;9.00;99.90
16970;DHT22;8601;48.718;8.992;2022-09-17T08:00:48;9.00;99.90
16970;DHT22;8601;48.718;8.992;2022-09-17T08:03:27;8.90;99.90
16970;DHT22;8601;48.718;8.992;2022-09-17T08:06:00;8.90;99.90
16970;DHT22;8601;48.718;8.992;2022-09-17T08:08:30;9.00;99.90
16970;DHT22;8601;48.718;8.992;2022-09-17T08:11:01;9.10;99.90
16970;DHT22;8601;48.718;8.992;2022-09-17T08:13:29;9.20;99.90
16970;DHT22;8601;48.718;8.992;2022-09-17T08:16:00;9.10;99.90
16970;DHT22;8601;48.718;8.992;2022-09-17T08:18:27;9.20;99.90
16970;DHT22;8601;48.718;8.992;2022-09-17T08:20:58;9.40;99.90
16970;DHT22;8601;48.718;8.992;2022-09-17T08:23:25;9.40;99.90
16970;DHT22;8601;48.718;8.992;2022-09-17T08:26:07;9.50;99.90
16970;DHT22;8601;48.718;8.992;2022-09-17T08:28:35;9.50;99.90
16970;DHT22;8601;48.718;8.992;2022-09-17T08:31:04;9.60;99.90
16970;DHT22;8601;48.718;8.992;2022-09-17T08:33:31;9.70;99.90
16970;DHT22;8601;48.718;8.992;2022-09-17T08:35:58;9.80;99.90
16970;DHT22;8601;48.718;8.992;2022-09-17T08:38:26;9.80;99.90
16970;DHT22;8601;48.718;8.992;2022-09-17T08:41:01;9.80;99.90
16970;DHT22;8601;48.718;8.992;2022-09-17T08:43:37;9.70;99.90
16970;DHT22;8601;48.718;8.992;2022-09-17T08:46:09;9.70;99.90
16970;DHT22;8601;48.718;8.992;2022-09-17T08:48:40;9.70;99.90
16970;DHT22;8601;48.718;8.992;2022-09-17T08:51:22;9.80;99.90
16970;DHT22;8601;48.718;8.992;2022-09-17T08:53:57;9.80;99.90
16970;DHT22;8601;48.718;8.992;2022-09-17T08:56:27;9.90;99.90
16970;DHT22;8601;48.718;8.992;2022-09-17T08:59:05;9.90;99.90
16970;DHT22;8601;48.718;8.992;2022-09-17T09:01:41;9.90;99.90
16970;DHT22;8601;48.718;8.992;2022-09-17T09:04:24;10.00;99.90
16970;DHT22;8601;48.718;8.992;2022-09-17T09:07:02;10.00;99.90
16970;DHT22;8601;48.718;8.992;2022-09-17T09:09:35;10.10;99.90
16970;DHT22;8601;48.718;8.992;2022-09-17T09:12:05;10.10;99.90
16970;DHT22;8601;48.718;8.992;2022-09-17T09:14:47;10.10;99.90
16970;DHT22;8601;48.718;8.992;2022-09-17T09:17:17;10.00;99.90
16970;DHT22;8601;48.718;8.992;2022-09-17T09:19:45;10.00;99.90
16970;DHT22;8601;48.718;8.992;2022-09-17T09:22:34;10.00;99.90
16970;DHT22;8601;48.718;8.992;2022-09-17T09:25:12;10.00;99.90
16970;DHT22;8601;48.718;8.992;2022-09-17T09:27:46;10.10;99.90
16970;DHT22;8601;48.718;8.992;2022-09-17T09:30:17;10.10;99.90
16970;DHT22;8601;48.718;8.992;2022-09-17T09:32:55;10.30;99.90
16970;DHT22;8601;48.718;8.992;2022-09-17T09:35:26;10.30;99.90
16970;DHT22;8601;48.718;8.992;2022-09-17T09:37:58;10.40;99.90
16970;DHT22;8601;48.718;8.992;2022-09-17T09:40:35;10.40;99.90
16970;DHT22;8601;48.718;8.992;2022-09-17T09:43:12;10.40;99.90
16970;DHT22;8601;48.718;8.992;2022-09-17T09:45:55;10.40;99.90
16970;DHT22;8601;48.718;8.992;2022-09-17T09:48:31;10.40;99.90
16970;DHT22;8601;48.718;8.992;2022-09-17T09:51:10;10.50;99.90
16970;DHT22;8601;48.718;8.992;2022-09-17T09:53:46;10.40;99.90
16970;DHT22;8601;48.718;8.992;2022-09-17T09:56:32;10.50;99.90
16970;DHT22;8601;48.718;8.992;2022-09-17T09:59:18;10.80;99.90
16970;DHT22;8601;48.718;8.992;2022-09-17T10:01:46;11.00;99.90
16970;DHT22;8601;48.718;8.992;2022-09-17T10:04:17;11.10;99.90
16970;DHT22;8601;48.718;8.992;2022-09-17T10:06:45;11.20;99.90
16970;DHT22;8601;48.718;8.992;2022-09-17T10:09:13;11.30;99.90
16970;DHT22;8601;48.718;8.992;2022-09-17T10:11:41;11.20;99.90
16970;DHT22;8601;48.718;8.992;2022-09-17T10:14:21;11.30;99.90
16970;DHT22;8601;48.718;8.992;2022-09-17T10:17:10;11.40;99.90
16970;DHT22;8601;48.718;8.992;2022-09-17T10:19:37;12.10;99.90
16970;DHT22;8601;48.718;8.992;2022-09-17T10:22:24;12.50;99.90
16970;DHT22;8601;48.718;8.992;2022-09-17T10:24:52;12.90;99.90
16970;DHT22;8601;48.718;8.992;2022-09-17T10:27:22;13.00;99.90
16970;DHT22;8601;48.718;8.992;2022-09-17T10:29:52;13.40;99.90
16970;DHT22;8601;48.718;8.992;2022-09-17T10:32:25;13.60;99.90
16970;DHT22;8601;48.718;8.992;2022-09-17T10:35:02;13.40;99.90
16970;DHT22;8601;48.718;8.992;2022-09-17T10:37:41;13.10;99.90
16970;DHT22;8601;48.718;8.992;2022-09-17T10:40:26;13.40;99.90
16970;DHT22;8601;48.718;8.992;2022-09-17T10:43:20;14.00;99.90
16970;DHT22;8601;48.718;8.992;2022-09-17T10:45:58;13.50;99.90
16970;DHT22;8601;48.718;8.992;2022-09-17T10:48:30;13.70;99.90
16970;DHT22;8601;48.718;8.992;2022-09-17T10:50:59;13.80;99.90
16970;DHT22;8601;48.718;8.992;2022-09-17T10:53:28;13.70;99.90
16970;DHT22;8601;48.718;8.992;2022-09-17T10:56:04;13.70;99.90
16970;DHT22;8601;48.718;8.992;2022-09-17T10:58:42;13.40;99.90
16970;DHT22;8601;48.718;8.992;2022-09-17T11:01:26;13.10;99.90
16970;DHT22;8601;48.718;8.992;2022-09-17T11:04:24;12.90;99.90
16970;DHT22;8601;48.718;8.992;2022-09-17T11:10:09;13.20;99.90
16970;DHT22;8601;48.718;8.992;2022-09-17T11:12:51;13.10;99.90
16970;DHT22;8601;48.718;8.992;2022-09-17T11:15:29;13.50;99.90
16970;DHT22;8601;48.718;8.992;2022-09-17T11:18:31;13.50;99.90
16970;DHT22;8601;48.718;8.992;2022-09-17T11:21:17;13.20;99.90
16970;DHT22;8601;48.718;8.992;2022-09-17T11:24:32;13.40;99.90
16970;DHT22;8601;48.718;8.992;2022-09-17T11:27:09;13.50;99.90
16970;DHT22;8601;48.718;8.992;2022-09-17T11:29:52;13.80;99.90
16970;DHT22;8601;48.718;8.992;2022-09-17T11:32:35;13.90;99.90
16970;DHT22;8601;48.718;8.992;2022-09-17T11:35:07;13.80;98.00
16970;DHT22;8601;48.718;8.992;2022-09-17T11:37:40;14.00;98.60
16970;DHT22;8601;48.718;8.992;2022-09-17T11:40:24;14.00;96.60
16970;DHT22;8601;48.718;8.992;2022-09-17T11:42:55;13.70;96.90
16970;DHT22;8601;48.718;8.992;2022-09-17T11:45:31;13.90;97.10
16970;DHT22;8601;48.718;8.992;2022-09-17T11:48:04;14.30;98.10
16970;DHT22;8601;48.718;8.992;2022-09-17T11:50:44;14.10;97.10
16970;DHT22;8601;48.718;8.992;2022-09-17T11:53:19;14.40;96.60
16970;DHT22;8601;48.718;8.992;2022-09-17T11:55:57;14.30;94.80
16970;DHT22;8601;48.718;8.992;2022-09-17T11:58:31;14.20;96.40
16970;DHT22;8601;48.718;8.992;2022-09-17T12:01:03;14.40;98.20
16970;DHT22;8601;48.718;8.992;2022-09-17T12:03:34;14.40;96.30
16970;DHT22;8601;48.718;8.992;2022-09-17T12:06:08;14.20;95.40
16970;DHT22;8601;48.718;8.992;2022-09-17T12:08:43;14.00;96.30
16970;DHT22;8601;48.718;8.992;2022-09-17T12:11:14;13.70;96.30
16970;DHT22;8601;48.718;8.992;2022-09-17T12:13:46;13.60;94.80
16970;DHT22;8601;48.718;8.992;2022-09-17T12:16:19;13.40;93.80
16970;DHT22;8601;48.718;8.992;2022-09-17T12:18:56;13.30;94.50
16970;DHT22;8601;48.718;8.992;2022-09-17T12:21:32;13.30;95.00
16970;DHT22;8601;48.718;8.992;2022-09-17T12:24:05;13.40;96.20
16970;DHT22;8601;48.718;8.992;2022-09-17T12:26:49;13.50;96.20
16970;DHT22;8601;48.718;8.992;2022-09-17T12:29:34;13.50;95.70
16970;DHT22;8601;48.718;8.992;2022-09-17T12:32:17;13.50;95.50
16970;DHT22;8601;48.718;8.992;2022-09-17T12:34:57;13.60;96.30
16970;DHT22;8601;48.718;8.992;2022-09-17T12:37:39;13.90;96.50
16970;DHT22;8601;48.718;8.992;2022-09-17T12:40:26;13.80;96.50
16970;DHT22;8601;48.718;8.992;2022-09-17T12:43:04;13.60;95.40
16970;DHT22;8601;48.718;8.992;2022-09-17T12:45:50;13.50;97.10
16970;DHT22;8601;48.718;8.992;2022-09-17T12:48:43;13.40;99.80
16970;DHT22;8601;48.718;8.992;2022-09-17T12:51:30;13.00;98.50
16970;DHT22;8601;48.718;8.992;2022-09-17T12:54:09;12.90;99.90
16970;DHT22;8601;48.718;8.992;2022-09-17T12:56:54;12.80;99.90
16970;DHT22;8601;48.718;8.992;2022-09-17T12:59:28;12.70;99.90
16970;DHT22;8601;48.718;8.992;2022-09-17T13:01:57;12.30;99.90
16970;DHT22;8601;48.718;8.992;2022-09-17T13:10:54;11.40;99.90
16970;DHT22;8601;48.718;8.992;2022-09-17T13:13:39;10.90;99.90
16970;DHT22;8601;48.718;8.992;2022-09-17T13:16:13;10.70;99.90
16970;DHT22;8601;48.718;8.992;2022-09-17T13:18:51;10.40;99.90
16970;DHT22;8601;48.718;8.992;2022-09-17T13:21:24;10.20;99.90
16970;DHT22;8601;48.718;8.992;2022-09-17T13:23:57;10.30;99.90
16970;DHT22;8601;48.718;8.992;2022-09-17T13:26:33;10.40;99.90
16970;DHT22;8601;48.718;8.992;2022-09-17T13:29:04;10.60;99.90
16970;DHT22;8601;48.718;8.992;2022-09-17T13:31:47;10.70;99.90
16970;DHT22;8601;48.718;8.992;2022-09-17T13:34:30;11.10;99.90
16970;DHT22;8601;48.718;8.992;2022-09-17T13:37:01;11.50;99.90
16970;DHT22;8601;48.718;8.992;2022-09-17T13:39:43;11.80;99.90
16970;DHT22;8601;48.718;8.992;2022-09-17T13:42:16;11.90;99.90
16970;DHT22;8601;48.718;8.992;2022-09-17T13:44:49;12.00;99.90
16970;DHT22;8601;48.718;8.992;2022-09-17T13:47:22;12.10;99.90
16970;DHT22;8601;48.718;8.992;2022-09-17T13:49:56;12.10;99.90
16970;DHT22;8601;48.718;8.992;2022-09-17T13:52:35;12.00;99.90
16970;DHT22;8601;48.718;8.992;2022-09-17T13:55:06;12.10;99.90
16970;DHT22;8601;48.718;8.992;2022-09-17T13:57:45;12.10;99.90
16970;DHT22;8601;48.718;8.992;2022-09-17T14:00:54;12.00;99.90
16970;DHT22;8601;48.718;8.992;2022-09-17T14:03:53;12.30;99.90
16970;DHT22;8601;48.718;8.992;2022-09-17T14:06:53;12.50;99.90
16970;DHT22;8601;48.718;8.992;2022-09-17T14:09:39;12.70;99.90
16970;DHT22;8601;48.718;8.992;2022-09-17T14:15:59;13.20;99.90
16970;DHT22;8601;48.718;8.992;2022-09-17T14:18:54;12.80;99.90
16970;DHT22;8601;48.718;8.992;2022-09-17T14:21:26;12.80;99.90
16970;DHT22;8601;48.718;8.992;2022-09-17T14:23:56;13.00;99.90
16970;DHT22;8601;48.718;8.992;2022-09-17T14:26:49;12.80;99.90
16970;DHT22;8601;48.718;8.992;2022-09-17T14:29:40;12.60;99.90
16970;DHT22;8601;48.718;8.992;2022-09-17T14:32:13;12.60;99.90
16970;DHT22;8601;48.718;8.992;2022-09-17T14:34:41;12.40;99.90
16970;DHT22;8601;48.718;8.992;2022-09-17T14:37:19;12.40;99.90
16970;DHT22;8601;48.718;8.992;2022-09-17T14:39:48;12.50;99.90
16970;DHT22;8601;48.718;8.992;2022-09-17T14:42:19;12.40;99.90
16970;DHT22;8601;48.718;8.992;2022-09-17T14:44:53;12.30;99.90
16970;DHT22;8601;48.718;8.992;2022-09-17T14:47:24;12.40;99.90
16970;DHT22;8601;48.718;8.992;2022-09-17T14:49:51;12.70;99.90
16970;DHT22;8601;48.718;8.992;2022-09-17T14:52:24;13.00;99.90
16970;DHT22;8601;48.718;8.992;2022-09-17T14:55:15;13.10;99.90
16970;DHT22;8601;48.718;8.992;2022-09-17T14:57:43;12.90;99.90
16970;DHT22;8601;48.718;8.992;2022-09-17T15:00:17;12.70;99.90
16970;DHT22;8601;48.718;8.992;2022-09-17T15:02:50;12.70;99.90
16970;DHT22;8601;48.718;8.992;2022-09-17T15:05:22;12.60;99.90
16970;DHT22;8601;48.718;8.992;2022-09-17T15:08:02;12.60;99.90
16970;DHT22;8601;48.718;8.992;2022-09-17T15:10:43;12.50;99.90
16970;DHT22;8601;48.718;8.992;2022-09-17T15:13:13;12.30;99.90
16970;DHT22;8601;48.718;8.992;2022-09-17T15:15:54;12.30;99.90
16970;DHT22;8601;48.718;8.992;2022-09-17T15:18:39;13.00;99.90
16970;DHT22;8601;48.718;8.992;2022-09-17T15:21:20;12.80;99.90
16970;DHT22;8601;48.718;8.992;2022-09-17T15:23:53;12.70;99.90
16970;DHT22;8601;48.718;8.992;2022-09-17T15:26:23;12.60;99.90
16970;DHT22;8601;48.718;8.992;2022-09-17T15:28:54;12.40;99.90
16970;DHT22;8601;48.718;8.992;2022-09-17T15:31:22;12.40;99.90
16970;DHT22;8601;48.718;8.992;2022-09-17T15:33:50;12.50;99.90
16970;DHT22;8601;48.718;8.992;2022-09-17T15:36:22;12.40;99.90
16970;DHT22;8601;48.718;8.992;2022-09-17T15:38:52;12.40;99.90
16970;DHT22;8601;48.718;8.992;2022-09-17T15:41:25;12.30;99.90
16970;DHT22;8601;48.718;8.992;2022-09-17T15:43:53;12.30;99.90
16970;DHT22;8601;48.718;8.992;2022-09-17T15:46:23;12.10;99.90
16970;DHT22;8601;48.718;8.992;2022-09-17T15:48:53;12.10;99.90
16970;DHT22;8601;48.718;8.992;2022-09-17T15:51:23;12.20;99.90
16970;DHT22;8601;48.718;8.992;2022-09-17T15:53:52;12.30;99.90
16970;DHT22;8601;48.718;8.992;2022-09-17T15:56:22;12.30;99.90
16970;DHT22;8601;48.718;8.992;2022-09-17T15:58:53;12.30;99.90
16970;DHT22;8601;48.718;8.992;2022-09-17T16:04:27;12.20;99.90
16970;DHT22;8601;48.718;8.992;2022-09-17T16:06:56;12.10;99.90
16970;DHT22;8601;48.718;8.992;2022-09-17T16:09:59;12.10;99.90
16970;DHT22;8601;48.718;8.992;2022-09-17T16:12:26;12.00;99.90
16970;DHT22;8601;48.718;8.992;2022-09-17T16:14:55;12.00;99.90
16970;DHT22;8601;48.718;8.992;2022-09-17T16:17:26;12.00;99.90
16970;DHT22;8601;48.718;8.992;2022-09-17T16:19:55;12.10;99.90
16970;DHT22;8601;48.718;8.992;2022-09-17T16:22:23;12.20;99.90
16970;DHT22;8601;48.718;8.992;2022-09-17T16:24:50;12.20;99.90
16970;DHT22;8601;48.718;8.992;2022-09-17T16:27:21;12.20;99.90
16970;DHT22;8601;48.718;8.992;2022-09-17T16:29:50;12.30;99.90
16970;DHT22;8601;48.718;8.992;2022-09-17T16:32:18;12.10;99.90
16970;DHT22;8601;48.718;8.992;2022-09-17T16:34:45;12.10;99.90
16970;DHT22;8601;48.718;8.992;2022-09-17T16:37:14;12.10;99.90
16970;DHT22;8601;48.718;8.992;2022-09-17T16:39:41;12.60;99.90
16970;DHT22;8601;48.718;8.992;2022-09-17T16:42:08;12.30;99.90
16970;DHT22;8601;48.718;8.992;2022-09-17T16:44:35;12.20;99.90
16970;DHT22;8601;48.718;8.992;2022-09-17T16:47:02;12.00;99.90
16970;DHT22;8601;48.718;8.992;2022-09-17T16:49:30;12.00;99.90